Sutter Hill, California
Current Conditions -  °F | °C
As of 6:35 PM on Wednesday 22 Oct 2014 (Local Time) from KPVF Reporting Station
Clear Clear  
Wind Chill: 63°   Ceiling: Unl
Heat Index: 63°   Visibility: 10mi
Dew Point: 36°   Wind: 0mph
Humidity: 37%   Direction: NA
Pressure: 30.09"   Gusts: NA
Location:  38.4267°N, 120.781°W
Report Text: KPVF 230135Z AUTO 00000KT 10SM CLR 17/02 A3009 RMK AO1
Loading
Personal Weather Stations






























Interactive Weather Map
Tropical Storm Tracking
New forecast layout! Learn more

10-Day Weather Forecast

Advertisements
Track Severe Weather on mobile